Time;durP1;ratioP1;P1;durP2;ratioP2;P2;SDS_P1;SDS_P2;PMS_P1;PMS_P2;Temp;Humidity;BMP_temperature;BMP_pressure;BME280_temperature;BME280_humidity;BME280_pressure;Samples;Min_cycle;Max_cycle;Signal;HPM_P1;HPM_P2
2024/03/14 00:01:56;;;;;;;10.37;6.97;;;17.70;62.20;;;;;;5012086;28;20263;-62
2024/03/14 00:04:22;;;;;;;13.40;9.27;;;17.60;62.20;;;;;;5006971;28;20981;-61
2024/03/14 00:06:47;;;;;;;8.40;7.50;;;17.40;63.60;;;;;;5009542;28;20487;-63
2024/03/14 00:09:13;;;;;;;10.57;8.57;;;17.30;63.30;;;;;;5007413;28;21002;-63
2024/03/14 00:11:39;;;;;;;7.47;6.67;;;17.20;63.90;;;;;;5011667;28;20269;-62
2024/03/14 00:14:06;;;;;;;8.50;7.20;;;17.10;64.30;;;;;;5010345;28;20190;-62
2024/03/14 00:16:32;;;;;;;10.43;9.33;;;17.20;64.50;;;;;;5006950;28;20523;-62
2024/03/14 00:18:59;;;;;;;9.43;8.40;;;17.30;64.00;;;;;;5008451;28;20969;-61
2024/03/14 00:21:26;;;;;;;10.33;8.80;;;17.40;63.50;;;;;;5010522;28;20190;-62
2024/03/14 00:23:52;;;;;;;9.20;8.30;;;17.40;63.50;;;;;;5008478;28;20433;-63
2024/03/14 00:26:17;;;;;;;8.67;7.87;;;17.50;63.50;;;;;;4999127;28;20472;-63
2024/03/14 00:28:43;;;;;;;12.53;8.67;;;17.50;63.20;;;;;;5008162;28;20256;-62
2024/03/14 00:31:10;;;;;;;9.80;8.77;;;17.40;63.80;;;;;;5010060;28;20189;-62
2024/03/14 00:33:36;;;;;;;8.60;7.67;;;17.00;64.30;;;;;;5008232;28;20421;-61
2024/03/14 00:36:04;;;;;;;8.63;7.63;;;17.00;65.50;;;;;;5007449;28;20523;-62
2024/03/14 00:38:30;;;;;;;8.83;7.00;;;17.10;65.10;;;;;;5006795;28;20198;-63
2024/03/14 00:40:56;;;;;;;8.73;7.93;;;17.20;64.80;;;;;;5007359;28;20476;-62
2024/03/14 00:43:21;;;;;;;8.90;8.00;;;17.20;64.20;;;;;;5006847;28;20448;-63
2024/03/14 00:45:47;;;;;;;10.53;8.20;;;17.20;65.20;;;;;;5010907;28;20178;-62
2024/03/14 00:48:12;;;;;;;9.23;8.33;;;17.30;64.10;;;;;;5010078;28;20201;-62
2024/03/14 00:50:41;;;;;;;8.00;7.20;;;17.40;63.80;;;;;;5007877;28;20572;-63
2024/03/14 00:53:06;;;;;;;9.10;8.20;;;17.30;63.40;;;;;;5009433;28;20198;-61
2024/03/14 00:55:32;;;;;;;12.20;7.90;;;17.30;63.60;;;;;;5009029;28;20472;-62
2024/03/14 00:57:58;;;;;;;9.83;8.20;;;17.30;63.60;;;;;;5007235;28;20213;-63
2024/03/14 01:00:23;;;;;;;7.90;7.10;;;17.30;63.60;;;;;;5009416;28;20636;-63
2024/03/14 01:02:50;;;;;;;10.90;9.23;;;17.30;63.40;;;;;;5009651;28;20185;-62
2024/03/14 01:05:17;;;;;;;10.57;8.93;;;17.30;63.60;;;;;;5008781;28;20198;-61
2024/03/14 01:07:45;;;;;;;11.20;8.30;;;17.40;63.00;;;;;;5005253;28;20449;-61
2024/03/14 01:10:11;;;;;;;9.13;8.10;;;17.40;63.00;;;;;;5010450;28;20796;-62
2024/03/14 01:12:37;;;;;;;9.40;8.30;;;17.50;62.80;;;;;;5007348;28;20816;-62
2024/03/14 01:15:06;;;;;;;9.40;8.40;;;17.50;62.70;;;;;;5008564;28;20429;-61
2024/03/14 01:17:31;;;;;;;12.40;7.60;;;17.40;62.50;;;;;;5004750;28;20611;-62
2024/03/14 01:19:57;;;;;;;10.10;8.40;;;17.30;62.60;;;;;;5007510;28;20485;-62
2024/03/14 01:22:23;;;;;;;8.00;6.80;;;17.40;62.50;;;;;;5010461;28;20528;-61
2024/03/14 01:24:48;;;;;;;9.23;8.33;;;17.30;62.50;;;;;;5006981;28;20332;-61
2024/03/14 01:27:18;;;;;;;9.50;8.37;;;17.30;62.90;;;;;;5009289;28;20210;-61
2024/03/14 01:29:46;;;;;;;8.27;7.47;;;17.30;63.10;;;;;;4997916;28;20625;-63
2024/03/14 01:32:12;;;;;;;8.03;7.23;;;17.30;63.00;;;;;;5007877;28;20921;-62
2024/03/14 01:34:37;;;;;;;12.53;8.63;;;17.20;62.90;;;;;;5008026;28;20539;-62
2024/03/14 01:37:06;;;;;;;10.03;8.37;;;17.30;62.90;;;;;;5001054;28;20368;-60
2024/03/14 01:39:32;;;;;;;9.03;8.13;;;17.30;62.90;;;;;;5001275;28;20228;-62
2024/03/14 01:41:57;;;;;;;9.20;7.20;;;17.40;62.80;;;;;;4999727;28;20933;-63
2024/03/14 01:44:23;;;;;;;8.87;7.20;;;17.30;62.20;;;;;;5009866;28;20440;-61
2024/03/14 01:46:49;;;;;;;16.87;8.67;;;16.90;63.70;;;;;;5008068;28;20680;-61
2024/03/14 01:49:15;;;;;;;9.40;7.93;;;16.90;64.00;;;;;;5005492;28;20236;-62
2024/03/14 01:51:41;;;;;;;14.17;9.70;;;16.80;64.50;;;;;;5007531;28;20186;-62
2024/03/14 01:54:06;;;;;;;9.70;8.70;;;16.80;64.50;;;;;;5007125;28;20433;-62
2024/03/14 01:56:33;;;;;;;10.10;8.90;;;16.80;64.90;;;;;;5017983;28;20308;-62
2024/03/14 01:58:58;;;;;;;8.67;7.77;;;16.80;65.00;;;;;;5007065;28;20189;-62
2024/03/14 02:01:24;;;;;;;12.03;9.37;;;17.00;64.40;;;;;;5010721;28;20432;-62
2024/03/14 02:04:12;;;;;;;12.00;9.00;;;17.10;63.80;;;;;;5004620;28;20178;-62
2024/03/14 02:06:58;;;;;;;14.10;8.60;;;17.20;63.40;;;;;;5008471;28;20210;-61
2024/03/14 02:09:23;;;;;;;10.33;8.43;;;17.10;63.40;;;;;;5004638;28;20475;-60
2024/03/14 02:11:50;;;;;;;14.43;10.50;;;17.10;62.70;;;;;;5009520;28;20425;-61
2024/03/14 02:14:16;;;;;;;12.90;11.20;;;17.20;63.20;;;;;;5009088;28;20536;-61
2024/03/14 02:16:41;;;;;;;12.03;10.40;;;17.30;63.20;;;;;;5004624;28;20456;-61
2024/03/14 02:19:07;;;;;;;13.03;8.87;;;17.30;62.80;;;;;;5006536;28;20270;-61
2024/03/14 02:21:34;;;;;;;9.97;8.67;;;17.40;62.50;;;;;;5007873;28;20193;-61
2024/03/14 02:24:00;;;;;;;10.93;8.70;;;17.40;62.00;;;;;;5003960;28;20223;-62
2024/03/14 02:26:26;;;;;;;8.63;7.77;;;17.40;61.60;;;;;;5005877;28;20549;-61
2024/03/14 02:28:52;;;;;;;9.30;7.63;;;17.40;61.80;;;;;;5002889;28;20201;-62
2024/03/14 02:31:18;;;;;;;10.67;7.27;;;17.30;62.00;;;;;;5008646;28;20433;-63
2024/03/14 02:33:44;;;;;;;8.50;7.60;;;17.20;62.30;;;;;;5006990;28;20642;-61
2024/03/14 02:36:10;;;;;;;7.07;6.47;;;17.20;62.50;;;;;;5008751;28;20192;-62
2024/03/14 02:38:37;;;;;;;8.03;7.23;;;17.10;63.10;;;;;;5006208;28;20495;-62
2024/03/14 02:41:03;;;;;;;7.57;6.83;;;17.10;63.10;;;;;;5005725;28;20526;-61
2024/03/14 02:43:28;;;;;;;8.50;7.70;;;17.10;62.50;;;;;;5008434;28;20917;-63
2024/03/14 02:45:54;;;;;;;8.07;7.27;;;17.10;62.70;;;;;;5005360;28;20190;-62
2024/03/14 02:48:19;;;;;;;7.40;6.63;;;17.20;62.00;;;;;;5007621;28;20232;-62
2024/03/14 02:50:45;;;;;;;7.43;6.73;;;17.20;61.80;;;;;;5008396;28;20606;-61
2024/03/14 02:53:13;;;;;;;7.47;6.77;;;17.20;61.90;;;;;;5006509;28;20780;-61
2024/03/14 02:55:39;;;;;;;7.77;7.07;;;17.20;61.80;;;;;;5006763;28;20190;-61
2024/03/14 02:58:06;;;;;;;8.53;7.73;;;17.30;61.70;;;;;;5007382;28;20506;-62
2024/03/14 03:00:32;;;;;;;7.27;6.53;;;17.30;61.60;;;;;;5007715;28;20317;-63
2024/03/14 03:02:58;;;;;;;9.87;7.67;;;17.40;61.60;;;;;;5008106;28;20429;-60
2024/03/14 03:05:23;;;;;;;7.20;6.50;;;17.30;61.30;;;;;;5008403;28;20467;-59
2024/03/14 03:07:49;;;;;;;6.47;5.97;;;17.20;61.30;;;;;;5005956;28;20198;-62
2024/03/14 03:10:16;;;;;;;6.30;5.70;;;17.10;61.60;;;;;;5008617;28;20214;-61
2024/03/14 03:12:42;;;;;;;8.90;6.60;;;17.20;61.70;;;;;;5006942;28;20550;-61
2024/03/14 03:15:10;;;;;;;6.27;5.67;;;17.20;61.60;;;;;;5008432;28;20432;-62
2024/03/14 03:17:38;;;;;;;6.73;6.17;;;17.30;61.20;;;;;;5005918;28;20214;-61
2024/03/14 03:20:09;;;;;;;5.80;5.30;;;17.30;61.20;;;;;;5007835;28;20659;-61
2024/03/14 03:23:06;;;;;;;6.53;6.03;;;17.20;61.20;;;;;;5007881;28;20916;-61
2024/03/14 03:25:21;;;;;;;7.47;6.87;;;17.20;61.40;;;;;;5005538;28;20467;-62
2024/03/14 03:27:47;;;;;;;7.30;6.13;;;17.00;61.30;;;;;;5007255;28;20448;-62
2024/03/14 03:30:12;;;;;;;9.07;6.27;;;16.90;62.30;;;;;;5007815;28;20650;-61
2024/03/14 03:32:38;;;;;;;6.60;6.00;;;16.90;61.70;;;;;;5008431;28;20182;-61
2024/03/14 03:35:04;;;;;;;9.43;7.00;;;16.90;61.80;;;;;;5007976;28;20190;-61
2024/03/14 03:37:29;;;;;;;6.50;6.00;;;16.90;61.40;;;;;;5008015;28;20206;-62
2024/03/14 03:39:56;;;;;;;6.60;6.00;;;16.90;60.80;;;;;;5006698;28;20249;-62
2024/03/14 03:42:22;;;;;;;6.77;6.10;;;16.90;61.10;;;;;;5011115;28;20194;-62
2024/03/14 03:44:49;;;;;;;5.50;5.10;;;16.80;61.00;;;;;;5011306;28;21008;-61
2024/03/14 03:47:16;;;;;;;6.40;5.83;;;16.90;61.30;;;;;;5008253;28;20213;-61
2024/03/14 03:49:42;;;;;;;7.20;6.53;;;16.90;61.10;;;;;;5005100;28;20487;-62
2024/03/14 03:52:08;;;;;;;6.23;5.73;;;16.90;60.90;;;;;;5008927;28;20424;-62
2024/03/14 03:54:34;;;;;;;6.37;5.87;;;16.90;60.80;;;;;;5010173;28;20428;-62
2024/03/14 03:56:59;;;;;;;5.50;5.10;;;16.90;60.40;;;;;;5011010;28;20828;-61
2024/03/14 03:59:25;;;;;;;6.00;5.50;;;16.90;60.40;;;;;;5009092;28;20226;-61
2024/03/14 04:01:50;;;;;;;6.00;5.30;;;16.90;60.60;;;;;;5008561;28;20268;-61
2024/03/14 04:04:19;;;;;;;7.00;6.40;;;16.90;60.30;;;;;;5003170;28;20214;-60
2024/03/14 04:06:44;;;;;;;6.33;5.73;;;16.80;60.10;;;;;;5001383;28;20555;-62
2024/03/14 04:09:15;;;;;;;6.43;5.93;;;16.70;60.80;;;;;;5010975;28;20482;-62
2024/03/14 04:11:43;;;;;;;5.60;5.10;;;16.60;61.80;;;;;;5012081;28;20318;-63
2024/03/14 04:14:09;;;;;;;6.07;5.47;;;16.60;61.80;;;;;;5007081;28;20806;-60
2024/03/14 04:16:36;;;;;;;8.40;5.40;;;16.60;61.40;;;;;;5010614;28;20449;-62
2024/03/14 04:19:02;;;;;;;6.87;5.67;;;16.70;61.20;;;;;;5010466;28;20768;-63
2024/03/14 04:21:28;;;;;;;5.37;4.87;;;16.60;62.10;;;;;;5011787;28;20453;-61
2024/03/14 04:23:56;;;;;;;6.70;5.23;;;16.60;61.40;;;;;;5010712;28;20437;-62
2024/03/14 04:29:43;;;;;;;5.00;4.60;;;16.40;62.00;;;;;;5005971;28;20471;-60
2024/03/14 04:32:12;;;;;;;6.20;5.60;;;16.50;62.20;;;;;;5009334;28;20449;-62
2024/03/14 04:34:41;;;;;;;5.70;5.00;;;16.60;61.60;;;;;;5011081;28;20221;-62
2024/03/14 04:37:07;;;;;;;5.70;5.10;;;16.70;60.80;;;;;;5008976;28;20912;-61
2024/03/14 04:39:33;;;;;;;6.40;5.70;;;16.60;60.60;;;;;;5011186;28;20531;-62
2024/03/14 04:41:59;;;;;;;5.10;4.70;;;16.60;61.10;;;;;;5005654;28;20245;-61
2024/03/14 04:44:25;;;;;;;4.83;4.37;;;16.70;60.90;;;;;;5009464;28;20532;-61
2024/03/14 04:46:54;;;;;;;6.10;5.57;;;16.60;60.90;;;;;;5008370;28;20480;-61
2024/03/14 04:49:21;;;;;;;6.33;5.77;;;16.60;61.00;;;;;;5010152;28;21015;-61
2024/03/14 04:51:47;;;;;;;6.30;4.97;;;16.50;60.90;;;;;;5010836;28;20488;-61
2024/03/14 04:54:15;;;;;;;6.77;5.60;;;16.50;60.80;;;;;;5009277;28;20436;-61
2024/03/14 04:56:41;;;;;;;6.73;6.03;;;16.50;59.90;;;;;;5010111;28;20205;-61
2024/03/14 04:59:09;;;;;;;5.27;4.80;;;16.50;60.20;;;;;;5009343;28;20457;-62
2024/03/14 05:01:35;;;;;;;5.40;4.90;;;16.30;60.30;;;;;;5009102;28;20252;-61
2024/03/14 05:04:03;;;;;;;5.80;5.30;;;16.30;61.00;;;;;;5008651;28;20445;-61
2024/03/14 05:06:28;;;;;;;6.43;5.83;;;16.10;61.40;;;;;;5006069;28;20210;-61
2024/03/14 05:08:54;;;;;;;5.47;5.00;;;16.20;61.30;;;;;;5009200;28;20944;-61
2024/03/14 05:11:21;;;;;;;5.97;5.30;;;16.30;60.20;;;;;;5005240;28;20194;-61
2024/03/14 05:13:56;;;;;;;5.33;4.83;;;16.00;61.20;;;;;;5007534;28;20524;-62
2024/03/14 05:16:22;;;;;;;6.30;5.70;;;16.00;61.60;;;;;;5002024;28;20474;-61
2024/03/14 05:18:48;;;;;;;7.73;6.93;;;16.10;61.40;;;;;;5007374;28;20456;-60
2024/03/14 05:21:15;;;;;;;8.20;6.10;;;16.10;61.10;;;;;;5008306;28;20859;-62
2024/03/14 05:23:41;;;;;;;5.80;4.83;;;16.00;61.10;;;;;;5005027;28;20190;-62
2024/03/14 05:26:07;;;;;;;5.10;4.70;;;15.90;61.80;;;;;;5008696;28;20432;-61
2024/03/14 05:28:36;;;;;;;5.27;4.77;;;15.90;61.90;;;;;;5005771;28;20449;-61
2024/03/14 05:31:01;;;;;;;6.03;4.93;;;16.10;61.10;;;;;;5010522;28;20281;-62
2024/03/14 05:33:27;;;;;;;8.00;5.20;;;16.00;61.10;;;;;;5006560;28;20525;-62
2024/03/14 05:35:53;;;;;;;4.70;4.30;;;16.10;60.80;;;;;;5009917;28;20301;-61
2024/03/14 05:38:19;;;;;;;4.70;4.20;;;16.00;60.80;;;;;;5005683;28;20178;-61
2024/03/14 05:40:45;;;;;;;5.53;4.70;;;16.00;60.40;;;;;;5008701;28;20647;-61
2024/03/14 05:43:11;;;;;;;5.20;4.80;;;16.00;60.90;;;;;;5003993;28;20217;-61
2024/03/14 05:45:37;;;;;;;5.47;4.13;;;15.80;60.40;;;;;;5006333;28;20425;-60
2024/03/14 05:48:11;;;;;;;5.03;4.53;;;15.80;60.90;;;;;;5008730;28;20690;-60
2024/03/14 05:50:37;;;;;;;5.70;5.20;;;15.60;61.50;;;;;;5010127;28;20917;-61
2024/03/14 05:53:03;;;;;;;5.80;5.30;;;15.60;61.70;;;;;;5008355;28;20462;-62
2024/03/14 05:55:31;;;;;;;6.00;5.50;;;15.50;61.80;;;;;;5010073;28;20429;-61
2024/03/14 05:57:57;;;;;;;6.10;5.60;;;15.60;62.10;;;;;;5005902;28;20438;-61
2024/03/14 06:00:24;;;;;;;6.77;6.10;;;15.70;61.60;;;;;;5009871;28;20926;-61
2024/03/14 06:02:49;;;;;;;6.80;6.20;;;15.80;61.40;;;;;;5005253;28;20441;-62
2024/03/14 06:05:15;;;;;;;5.20;4.43;;;15.90;60.90;;;;;;5009861;28;20435;-61
2024/03/14 06:07:41;;;;;;;6.60;5.30;;;16.00;60.90;;;;;;5007447;28;20232;-61
2024/03/14 06:10:09;;;;;;;5.77;5.27;;;16.00;60.30;;;;;;5007135;28;20193;-61
2024/03/14 06:12:38;;;;;;;7.97;5.60;;;16.10;59.70;;;;;;5010004;28;20421;-61
2024/03/14 06:15:08;;;;;;;5.63;5.13;;;15.70;61.00;;;;;;5009255;28;20460;-60
2024/03/14 06:17:34;;;;;;;5.80;5.27;;;15.70;61.10;;;;;;5008366;28;20490;-61
2024/03/14 06:20:00;;;;;;;7.03;6.37;;;15.80;60.20;;;;;;5006689;28;20485;-62
2024/03/14 06:22:26;;;;;;;9.70;6.30;;;15.70;60.50;;;;;;5009609;28;20189;-61
2024/03/14 06:24:51;;;;;;;10.43;6.40;;;15.60;60.50;;;;;;5004222;28;20220;-61
2024/03/14 06:27:17;;;;;;;8.90;7.73;;;15.40;61.20;;;;;;5004096;28;21020;-61
2024/03/14 06:29:43;;;;;;;8.70;7.50;;;15.40;61.60;;;;;;5009119;28;20743;-60
2024/03/14 06:32:09;;;;;;;7.63;6.83;;;15.10;61.70;;;;;;5006411;28;20198;-62
2024/03/14 06:34:36;;;;;;;8.30;7.17;;;14.50;62.80;;;;;;5008921;28;20190;-61
2024/03/14 06:37:02;;;;;;;7.13;6.33;;;14.20;65.10;;;;;;5005474;28;20445;-62
2024/03/14 06:39:28;;;;;;;7.83;6.90;;;14.10;65.70;;;;;;5008772;28;20473;-60
2024/03/14 06:41:54;;;;;;;9.40;7.67;;;14.10;66.40;;;;;;5008328;28;20198;-60
2024/03/14 06:44:19;;;;;;;9.53;8.10;;;14.00;66.20;;;;;;5008629;28;20181;-61
2024/03/14 06:46:45;;;;;;;10.60;8.00;;;13.80;67.20;;;;;;5007699;28;20467;-62
2024/03/14 06:49:13;;;;;;;9.37;7.60;;;13.90;67.50;;;;;;5002656;28;20194;-62
2024/03/14 06:51:41;;;;;;;8.80;7.90;;;14.20;67.20;;;;;;5006011;28;20189;-60
2024/03/14 06:54:07;;;;;;;9.53;7.70;;;14.30;66.00;;;;;;5006453;28;20441;-60
2024/03/14 06:56:35;;;;;;;8.33;7.40;;;14.50;65.40;;;;;;5007547;28;20852;-62
2024/03/14 06:59:02;;;;;;;9.73;7.83;;;14.80;64.70;;;;;;5006363;28;20607;-62
2024/03/14 07:01:31;;;;;;;8.27;6.70;;;14.90;64.30;;;;;;5007526;28;20482;-61
2024/03/14 07:03:58;;;;;;;7.67;6.97;;;15.00;64.10;;;;;;5007488;28;20531;-61
2024/03/14 07:06:25;;;;;;;10.63;9.63;;;15.00;64.10;;;;;;5006588;28;20583;-61
2024/03/14 07:08:56;;;;;;;10.27;9.20;;;15.20;63.70;;;;;;5008500;28;20448;-61
2024/03/14 07:11:25;;;;;;;6.90;6.20;;;15.40;62.90;;;;;;5007555;28;20433;-60
2024/03/14 07:13:59;;;;;;;8.90;8.00;;;15.50;62.40;;;;;;5009110;28;20436;-62
2024/03/14 07:16:25;;;;;;;9.17;7.80;;;15.50;62.80;;;;;;5008680;28;20453;-60
2024/03/14 07:18:55;;;;;;;8.00;7.20;;;15.60;62.70;;;;;;5012057;28;20444;-61
2024/03/14 07:21:22;;;;;;;8.10;7.30;;;15.40;62.10;;;;;;5012359;28;20484;-60
2024/03/14 07:23:48;;;;;;;10.17;8.23;;;15.40;62.30;;;;;;5016993;28;20975;-62
2024/03/14 07:26:22;;;;;;;8.20;7.37;;;15.20;61.40;;;;;;5010383;28;20460;-61
2024/03/14 07:28:53;;;;;;;9.77;8.20;;;15.30;62.60;;;;;;5011617;28;20187;-61
2024/03/14 07:31:19;;;;;;;8.93;7.93;;;15.30;62.10;;;;;;5009336;28;20425;-61
2024/03/14 07:33:45;;;;;;;9.90;8.20;;;15.00;63.30;;;;;;5012319;28;20932;-61
2024/03/14 07:36:17;;;;;;;10.23;8.00;;;15.20;63.50;;;;;;5010641;28;21325;-60
2024/03/14 07:38:44;;;;;;;11.57;9.50;;;15.30;63.20;;;;;;5006687;28;20428;-61
2024/03/14 07:41:12;;;;;;;9.70;8.70;;;15.40;62.30;;;;;;5009658;28;20476;-61
2024/03/14 07:43:41;;;;;;;10.10;8.60;;;15.50;62.70;;;;;;5009899;28;20495;-59
2024/03/14 07:46:08;;;;;;;9.80;8.80;;;15.70;62.50;;;;;;5007890;28;20448;-61
2024/03/14 07:48:33;;;;;;;11.13;7.80;;;15.60;62.70;;;;;;5011101;28;20474;-60
2024/03/14 07:51:01;;;;;;;9.90;8.90;;;15.30;63.70;;;;;;5012329;28;20424;-61
2024/03/14 07:53:27;;;;;;;21.13;12.37;;;15.10;64.30;;;;;;5010113;28;20186;-61
2024/03/14 07:55:52;;;;;;;11.80;8.23;;;15.00;65.70;;;;;;5009560;28;20456;-61
2024/03/14 07:58:18;;;;;;;11.00;8.67;;;15.30;65.50;;;;;;5009162;28;20189;-60
2024/03/14 08:00:46;;;;;;;9.07;8.17;;;15.30;64.40;;;;;;5006431;28;20709;-60
2024/03/14 08:03:11;;;;;;;8.30;7.37;;;15.20;64.10;;;;;;5009420;28;20193;-61
2024/03/14 08:05:37;;;;;;;7.30;6.60;;;15.10;65.00;;;;;;5007549;28;20444;-62
2024/03/14 08:08:03;;;;;;;8.50;7.70;;;15.30;65.00;;;;;;5008669;28;20206;-62
2024/03/14 08:10:28;;;;;;;9.30;8.30;;;15.30;64.60;;;;;;5007971;28;20198;-62
2024/03/14 08:12:57;;;;;;;8.03;7.27;;;15.30;64.80;;;;;;5010163;28;20269;-61
2024/03/14 08:15:35;;;;;;;7.63;6.90;;;15.60;64.70;;;;;;5013274;28;20177;-59
2024/03/14 08:18:07;;;;;;;7.87;6.90;;;15.50;64.90;;;;;;5006397;28;20460;-62
2024/03/14 08:20:36;;;;;;;8.27;7.47;;;15.60;65.10;;;;;;5007434;28;20472;-62
2024/03/14 08:23:04;;;;;;;7.37;6.60;;;15.90;64.40;;;;;;5010874;28;20521;-61
2024/03/14 08:25:36;;;;;;;7.40;6.70;;;15.90;63.20;;;;;;5009564;28;20540;-61
2024/03/14 08:28:03;;;;;;;9.07;6.93;;;15.70;63.00;;;;;;5017712;28;21009;-61
2024/03/14 08:30:28;;;;;;;7.37;6.67;;;15.50;64.30;;;;;;5015861;28;20490;-62
2024/03/14 08:32:54;;;;;;;7.60;6.70;;;15.50;65.10;;;;;;5011087;28;20425;-61
2024/03/14 08:35:20;;;;;;;7.40;6.37;;;15.80;64.30;;;;;;5010067;28;20189;-61
2024/03/14 08:37:45;;;;;;;9.00;6.70;;;15.80;63.70;;;;;;5009989;28;20209;-60
2024/03/14 08:40:11;;;;;;;6.70;6.10;;;16.00;64.00;;;;;;5010866;28;20476;-62
2024/03/14 08:42:38;;;;;;;7.93;7.17;;;16.30;63.80;;;;;;5011525;28;20596;-62
2024/03/14 08:45:04;;;;;;;6.13;5.50;;;16.40;63.60;;;;;;5009904;28;20449;-62
2024/03/14 08:47:34;;;;;;;8.20;6.40;;;16.60;63.60;;;;;;5012047;28;20792;-62
2024/03/14 08:49:59;;;;;;;6.30;5.70;;;16.80;63.20;;;;;;5012524;28;20511;-61
2024/03/14 08:52:28;;;;;;;7.00;6.27;;;16.90;62.10;;;;;;5007528;28;20486;-61
2024/03/14 08:54:54;;;;;;;5.97;5.43;;;16.90;61.40;;;;;;5005663;28;20202;-62
2024/03/14 08:57:23;;;;;;;7.63;6.10;;;17.10;60.50;;;;;;5008667;28;20970;-62
2024/03/14 08:59:49;;;;;;;6.00;5.40;;;16.90;60.50;;;;;;5004859;28;20224;-60
2024/03/14 09:02:14;;;;;;;5.50;5.00;;;16.80;61.40;;;;;;5011023;28;20425;-62
2024/03/14 09:04:46;;;;;;;5.40;4.90;;;16.80;60.90;;;;;;5010273;28;20645;-62
2024/03/14 09:07:13;;;;;;;6.00;5.50;;;17.00;60.20;;;;;;5008034;28;20244;-62
2024/03/14 09:09:40;;;;;;;5.93;5.40;;;16.90;59.80;;;;;;5005801;28;20428;-61
2024/03/14 09:12:24;;;;;;;5.93;5.33;;;16.90;61.20;;;;;;5008549;28;20436;-62
2024/03/14 09:14:50;;;;;;;5.73;4.80;;;17.10;61.30;;;;;;5007480;28;20799;-63
2024/03/14 09:17:16;;;;;;;4.77;4.27;;;17.40;59.80;;;;;;5006317;28;20973;-61
2024/03/14 09:19:42;;;;;;;5.30;4.40;;;17.60;59.10;;;;;;5002502;28;20533;-62
2024/03/14 09:22:08;;;;;;;4.07;3.77;;;17.80;58.10;;;;;;5009013;28;20195;-62
2024/03/14 09:24:35;;;;;;;4.47;4.07;;;17.50;58.50;;;;;;5006329;28;20202;-59
2024/03/14 09:27:04;;;;;;;4.73;4.13;;;17.50;58.30;;;;;;5004460;28;20474;-61
2024/03/14 09:29:30;;;;;;;4.87;4.43;;;17.60;59.10;;;;;;5010114;28;20433;-62
2024/03/14 09:31:57;;;;;;;4.50;4.10;;;17.80;58.80;;;;;;5005440;28;20519;-62
2024/03/14 09:34:23;;;;;;;4.30;3.90;;;17.90;57.40;;;;;;5004970;28;20448;-62
2024/03/14 09:36:53;;;;;;;5.10;4.40;;;17.90;58.10;;;;;;5006100;28;20492;-60
2024/03/14 09:39:21;;;;;;;4.00;3.47;;;18.10;57.60;;;;;;5003886;28;20479;-62
2024/03/14 09:41:47;;;;;;;3.77;3.47;;;18.10;56.90;;;;;;5003772;28;20453;-62
2024/03/14 09:44:17;;;;;;;3.23;2.93;;;18.00;57.00;;;;;;5008644;28;20429;-63
2024/03/14 09:46:55;;;;;;;3.70;3.40;;;18.10;57.80;;;;;;5004841;28;20465;-62
2024/03/14 09:49:24;;;;;;;2.90;2.60;;;18.30;57.20;;;;;;5002235;28;20436;-58
2024/03/14 09:51:53;;;;;;;3.37;3.03;;;18.50;56.40;;;;;;4998563;28;20460;-63
2024/03/14 09:54:21;;;;;;;2.97;2.67;;;18.90;56.60;;;;;;5007390;28;20567;-60
2024/03/14 09:56:46;;;;;;;2.17;1.97;;;19.10;55.80;;;;;;5001395;28;20555;-61
2024/03/14 09:59:12;;;;;;;2.90;2.70;;;19.10;54.70;;;;;;5003309;28;20551;-63
2024/03/14 10:01:42;;;;;;;2.80;2.40;;;19.30;54.70;;;;;;5003040;28;20283;-60
2024/03/14 10:04:11;;;;;;;3.20;2.90;;;19.50;53.60;;;;;;5002251;28;20487;-62
2024/03/14 10:06:40;;;;;;;4.80;2.53;;;19.70;53.00;;;;;;4996500;28;20461;-62
2024/03/14 10:09:11;;;;;;;3.23;2.10;;;20.00;54.10;;;;;;5002860;28;20532;-61
2024/03/14 10:11:38;;;;;;;2.73;2.43;;;20.20;53.90;;;;;;5006091;28;20476;-63
2024/03/14 10:14:16;;;;;;;3.20;2.20;;;20.40;52.90;;;;;;5004287;28;20452;-60
2024/03/14 10:16:45;;;;;;;3.00;2.40;;;20.50;52.40;;;;;;4996747;28;21284;-63
2024/03/14 10:19:10;;;;;;;5.20;2.60;;;20.70;51.70;;;;;;5000958;28;20482;-61
2024/03/14 10:21:36;;;;;;;2.47;1.70;;;20.90;51.20;;;;;;5007428;28;20941;-61
2024/03/14 10:24:03;;;;;;;2.53;1.60;;;20.90;51.00;;;;;;5006160;28;20186;-62
2024/03/14 10:26:30;;;;;;;3.23;1.53;;;20.90;50.80;;;;;;5003005;28;20469;-63
2024/03/14 10:28:57;;;;;;;3.53;1.80;;;21.00;50.40;;;;;;5006450;28;20484;-61
2024/03/14 10:31:24;;;;;;;3.50;1.50;;;21.10;50.20;;;;;;5007522;28;20441;-61
2024/03/14 10:33:50;;;;;;;1.67;1.47;;;21.20;49.80;;;;;;5006077;28;20803;-60
2024/03/14 10:36:19;;;;;;;1.50;1.40;;;21.20;49.10;;;;;;5007028;28;20837;-62
2024/03/14 10:38:45;;;;;;;1.53;1.43;;;21.40;48.90;;;;;;5000369;28;20179;-61
2024/03/14 10:41:16;;;;;;;1.60;1.50;;;21.40;48.90;;;;;;4998033;28;20485;-62
2024/03/14 10:43:50;;;;;;;6.57;1.50;;;21.40;49.30;;;;;;5004347;28;20494;-63
2024/03/14 10:46:16;;;;;;;1.30;1.20;;;21.50;48.20;;;;;;5000847;28;20510;-62
2024/03/14 10:48:45;;;;;;;1.40;1.30;;;21.50;47.60;;;;;;5008336;28;20829;-62
2024/03/14 10:51:14;;;;;;;1.83;1.20;;;21.40;48.00;;;;;;5009030;28;20865;-62
2024/03/14 10:53:40;;;;;;;1.23;1.13;;;21.00;48.60;;;;;;5009381;28;20432;-62
2024/03/14 10:56:15;;;;;;;1.17;1.03;;;21.10;48.70;;;;;;5010489;28;20512;-62
2024/03/14 10:58:43;;;;;;;1.53;1.30;;;21.10;48.70;;;;;;5010660;28;20465;-60
2024/03/14 11:01:11;;;;;;;1.40;1.30;;;21.10;48.70;;;;;;5009603;28;20494;-62
2024/03/14 11:03:38;;;;;;;6.60;1.43;;;21.20;49.50;;;;;;5013011;28;20444;-62
2024/03/14 11:06:10;;;;;;;1.60;1.50;;;21.10;48.50;;;;;;5012006;28;20433;-61
2024/03/14 11:08:39;;;;;;;1.53;1.40;;;21.00;48.50;;;;;;5011133;28;20448;-62
2024/03/14 11:11:05;;;;;;;2.17;1.20;;;21.10;48.60;;;;;;5013193;28;20551;-61
2024/03/14 11:13:31;;;;;;;1.37;1.27;;;21.40;48.90;;;;;;5012688;28;20460;-61
2024/03/14 11:15:59;;;;;;;1.60;1.50;;;21.60;48.80;;;;;;5009918;28;20554;-60
2024/03/14 11:18:37;;;;;;;1.20;1.10;;;21.70;48.60;;;;;;5007298;28;20217;-62
2024/03/14 11:21:06;;;;;;;1.50;1.40;;;21.90;47.70;;;;;;5010916;28;20490;-62
2024/03/14 11:23:34;;;;;;;1.23;1.13;;;21.90;47.70;;;;;;5011654;28;20437;-62
2024/03/14 11:26:05;;;;;;;1.17;1.03;;;22.10;47.60;;;;;;5012444;28;20461;-62
2024/03/14 11:28:32;;;;;;;2.07;1.53;;;22.20;47.60;;;;;;5011494;28;20413;-61
2024/03/14 11:31:00;;;;;;;1.33;1.23;;;22.20;47.30;;;;;;5003982;28;21025;-59
2024/03/14 11:33:26;;;;;;;2.43;1.03;;;22.30;47.10;;;;;;5005660;28;20988;-62
2024/03/14 11:35:56;;;;;;;2.67;1.17;;;22.30;45.90;;;;;;5006879;28;20459;-63
2024/03/14 11:38:23;;;;;;;1.10;1.00;;;22.20;46.00;;;;;;5010358;28;20487;-62
2024/03/14 11:40:54;;;;;;;1.30;1.20;;;22.10;46.40;;;;;;5010525;28;20475;-60
2024/03/14 11:43:24;;;;;;;1.03;0.97;;;22.10;46.40;;;;;;5001329;28;20521;-61
2024/03/14 11:46:00;;;;;;;1.83;0.90;;;22.30;46.30;;;;;;5010062;28;20417;-62
2024/03/14 11:48:30;;;;;;;2.30;1.17;;;22.40;45.80;;;;;;5006580;28;20963;-62
2024/03/14 11:51:03;;;;;;;1.10;1.00;;;22.50;46.20;;;;;;5009214;28;20512;-62
2024/03/14 11:53:31;;;;;;;1.70;1.37;;;22.60;45.80;;;;;;5008209;28;20949;-60
2024/03/14 11:55:58;;;;;;;2.30;1.30;;;22.50;46.20;;;;;;5009234;28;20456;-60
2024/03/14 11:58:24;;;;;;;1.47;1.00;;;22.50;45.80;;;;;;5007683;28;20486;-61
2024/03/14 12:00:53;;;;;;;1.57;1.07;;;22.60;45.80;;;;;;5010363;28;21007;-60
2024/03/14 12:03:22;;;;;;;0.90;0.73;;;22.60;45.90;;;;;;5004936;28;20209;-59
2024/03/14 12:05:57;;;;;;;0.77;0.77;;;22.30;44.30;;;;;;5005690;28;20453;-61
2024/03/14 12:08:24;;;;;;;1.00;0.90;;;22.10;44.90;;;;;;5007456;28;21320;-61
2024/03/14 12:10:54;;;;;;;1.00;0.93;;;22.00;45.30;;;;;;5005931;28;20510;-60
2024/03/14 12:13:23;;;;;;;0.90;0.90;;;22.20;44.90;;;;;;5008962;28;20452;-61
2024/03/14 12:15:59;;;;;;;2.50;0.80;;;22.50;45.40;;;;;;5008292;28;20844;-62
2024/03/14 12:18:25;;;;;;;1.20;1.00;;;22.80;44.60;;;;;;5006539;28;20459;-62
2024/03/14 12:20:53;;;;;;;2.93;1.00;;;23.00;43.80;;;;;;5006881;28;20484;-61
2024/03/14 12:23:22;;;;;;;1.00;0.83;;;23.10;43.80;;;;;;5003606;28;20190;-59
2024/03/14 12:25:51;;;;;;;1.20;1.10;;;23.30;44.00;;;;;;5006782;28;20449;-60
2024/03/14 12:28:19;;;;;;;0.93;0.93;;;23.30;43.90;;;;;;5006901;28;20432;-62
2024/03/14 12:30:56;;;;;;;2.20;0.90;;;23.40;43.40;;;;;;5002935;28;20472;-61
2024/03/14 12:33:22;;;;;;;0.93;0.90;;;23.60;43.30;;;;;;5005522;28;20429;-62
2024/03/14 12:35:49;;;;;;;1.10;1.00;;;23.70;43.50;;;;;;5009965;28;20461;-61
2024/03/14 12:38:18;;;;;;;0.90;0.70;;;23.80;44.20;;;;;;5009072;28;20460;-62
2024/03/14 12:40:49;;;;;;;0.87;0.67;;;24.10;43.50;;;;;;5009148;28;20484;-62
2024/03/14 12:43:15;;;;;;;1.73;0.80;;;23.80;40.50;;;;;;5004259;28;20472;-60
2024/03/14 12:45:44;;;;;;;0.90;0.90;;;23.60;43.10;;;;;;5005773;28;20448;-61
2024/03/14 12:48:15;;;;;;;1.00;0.80;;;23.70;43.60;;;;;;5007412;28;20449;-60
2024/03/14 12:50:40;;;;;;;1.20;0.83;;;23.90;43.30;;;;;;5006746;28;20486;-60